4XCWE LLHZ-LLHZ

Flight info

Callsign 4XCWE
Flight time 0h 6m
Altitude 800
Route CVFR
Aircraft C152/L-VD/A

Departure

Time 2026-04-28 09:37
Airport Herzliya Airport (LLHZ)

Arrival

Time 2026-04-28 09:44
Airport Herzliya Airport (LLHZ)
Time Latitude Longitude Altitude Speed Heading
2026-04-28 09:34 32.17881 34.83779 115 ft 0 kts 110°
2026-04-28 09:35 32.17882 34.83789 114 ft 9 kts 60°
2026-04-28 09:36 32.17914 34.83828 118 ft 8 kts 339°
2026-04-28 09:36 32.17947 34.83739 112 ft 33 kts 290°
2026-04-28 09:36 32.18026 34.83472 109 ft 63 kts 289°
2026-04-28 09:37 32.18178 34.82992 295 ft 60 kts 296°
2026-04-28 09:37 32.18524 34.82814 539 ft 70 kts 11°
2026-04-28 09:37 32.19021 34.83034 647 ft 80 kts 15°
2026-04-28 09:37 32.19394 34.83476 789 ft 86 kts 94°
2026-04-28 09:38 32.19193 34.84171 852 ft 99 kts 113°
2026-04-28 09:38 32.18916 34.84933 960 ft 99 kts 115°
2026-04-28 09:38 32.18511 34.85465 826 ft 83 kts 192°
2026-04-28 09:38 32.17932 34.85296 727 ft 93 kts 205°
2026-04-28 09:39 32.17607 34.84849 535 ft 58 kts 285°
2026-04-28 09:39 32.17700 34.84526 407 ft 55 kts 294°
2026-04-28 09:40 32.17745 34.84388 352 ft 59 kts 293°
2026-04-28 09:40 32.17891 34.83922 157 ft 60 kts 292°
2026-04-28 09:40 32.18015 34.83515 102 ft 55 kts 289°
2026-04-28 09:40 32.18143 34.83051 280 ft 54 kts 276°
2026-04-28 09:41 32.18432 34.82814 402 ft 76 kts 12°
2026-04-28 09:41 32.18684 34.82920 519 ft 77 kts 16°
2026-04-28 09:42 32.18776 34.82964 538 ft 78 kts 14°
2026-04-28 09:42 32.19250 34.83220 729 ft 74 kts 40°
2026-04-28 09:42 32.19219 34.83880 783 ft 96 kts 113°
2026-04-28 09:42 32.18938 34.84640 843 ft 108 kts 114°
2026-04-28 09:43 32.18547 34.85369 854 ft 96 kts 170°
2026-04-28 09:43 32.17888 34.85309 715 ft 94 kts 208°
2026-04-28 09:43 32.17642 34.84835 623 ft 65 kts 281°
2026-04-28 09:43 32.17750 34.84364 385 ft 54 kts 295°
2026-04-28 09:44 32.17875 34.83973 178 ft 54 kts 292°
2026-04-28 09:44 32.17995 34.83582 104 ft 40 kts 290°
2026-04-28 09:44 32.18057 34.83366 97 ft 14 kts 275°
2026-04-28 09:44 32.18028 34.83323 98 ft 6 kts 198°